sensor_id;sensor_type;location;lat;lon;timestamp;temperature;humidity
16174;DHT22;14031;50.158;8.626;2023-05-07T00:00:38;17.70;99.90
16174;DHT22;14031;50.158;8.626;2023-05-07T00:03:05;17.60;99.90
16174;DHT22;14031;50.158;8.626;2023-05-07T00:05:32;17.70;99.90
16174;DHT22;14031;50.158;8.626;2023-05-07T00:07:59;17.60;99.90
16174;DHT22;14031;50.158;8.626;2023-05-07T00:10:27;17.70;99.90
16174;DHT22;14031;50.158;8.626;2023-05-07T00:12:54;17.60;99.90
16174;DHT22;14031;50.158;8.626;2023-05-07T00:15:21;17.60;99.90
16174;DHT22;14031;50.158;8.626;2023-05-07T00:17:47;17.60;99.90
16174;DHT22;14031;50.158;8.626;2023-05-07T00:20:14;17.60;99.90
16174;DHT22;14031;50.158;8.626;2023-05-07T00:22:41;17.50;99.90
16174;DHT22;14031;50.158;8.626;2023-05-07T00:25:08;17.60;99.90
16174;DHT22;14031;50.158;8.626;2023-05-07T00:27:37;17.60;99.90
16174;DHT22;14031;50.158;8.626;2023-05-07T00:30:04;17.60;99.90
16174;DHT22;14031;50.158;8.626;2023-05-07T00:32:31;17.50;99.90
16174;DHT22;14031;50.158;8.626;2023-05-07T00:34:58;17.50;99.90
16174;DHT22;14031;50.158;8.626;2023-05-07T00:37:25;17.40;99.90
16174;DHT22;14031;50.158;8.626;2023-05-07T00:39:52;17.40;99.90
16174;DHT22;14031;50.158;8.626;2023-05-07T00:42:18;17.60;99.90
16174;DHT22;14031;50.158;8.626;2023-05-07T00:44:47;17.60;99.90
16174;DHT22;14031;50.158;8.626;2023-05-07T00:47:14;17.40;99.90
16174;DHT22;14031;50.158;8.626;2023-05-07T00:49:42;17.40;99.90
16174;DHT22;14031;50.158;8.626;2023-05-07T00:52:11;17.50;99.90
16174;DHT22;14031;50.158;8.626;2023-05-07T00:54:40;17.40;99.90
16174;DHT22;14031;50.158;8.626;2023-05-07T00:57:09;17.40;99.90
16174;DHT22;14031;50.158;8.626;2023-05-07T00:59:37;17.50;99.90
16174;DHT22;14031;50.158;8.626;2023-05-07T01:02:05;17.50;99.90
16174;DHT22;14031;50.158;8.626;2023-05-07T01:04:32;17.40;99.90
16174;DHT22;14031;50.158;8.626;2023-05-07T01:06:59;17.40;99.90
16174;DHT22;14031;50.158;8.626;2023-05-07T01:09:28;17.40;99.90
16174;DHT22;14031;50.158;8.626;2023-05-07T01:11:55;17.40;99.90
16174;DHT22;14031;50.158;8.626;2023-05-07T01:14:23;17.40;99.90
16174;DHT22;14031;50.158;8.626;2023-05-07T01:16:50;17.40;99.90
16174;DHT22;14031;50.158;8.626;2023-05-07T01:19:18;17.30;99.90
16174;DHT22;14031;50.158;8.626;2023-05-07T01:21:47;17.40;99.90
16174;DHT22;14031;50.158;8.626;2023-05-07T01:24:16;17.30;99.90
16174;DHT22;14031;50.158;8.626;2023-05-07T01:26:43;17.30;99.90
16174;DHT22;14031;50.158;8.626;2023-05-07T01:29:10;17.30;99.90
16174;DHT22;14031;50.158;8.626;2023-05-07T01:31:37;17.20;99.90
16174;DHT22;14031;50.158;8.626;2023-05-07T01:34:05;17.20;99.90
16174;DHT22;14031;50.158;8.626;2023-05-07T01:36:34;17.30;99.90
16174;DHT22;14031;50.158;8.626;2023-05-07T01:39:02;17.20;99.90
16174;DHT22;14031;50.158;8.626;2023-05-07T01:41:31;17.20;99.90
16174;DHT22;14031;50.158;8.626;2023-05-07T01:43:58;17.20;99.90
16174;DHT22;14031;50.158;8.626;2023-05-07T01:46:26;17.20;99.90
16174;DHT22;14031;50.158;8.626;2023-05-07T01:48:53;17.10;99.90
16174;DHT22;14031;50.158;8.626;2023-05-07T01:51:19;17.10;99.90
16174;DHT22;14031;50.158;8.626;2023-05-07T01:53:47;17.10;99.90
16174;DHT22;14031;50.158;8.626;2023-05-07T01:56:16;17.10;99.90
16174;DHT22;14031;50.158;8.626;2023-05-07T01:58:44;17.10;99.90
16174;DHT22;14031;50.158;8.626;2023-05-07T02:01:12;17.10;99.90
16174;DHT22;14031;50.158;8.626;2023-05-07T02:03:39;17.00;99.90
16174;DHT22;14031;50.158;8.626;2023-05-07T02:06:06;17.20;99.90
16174;DHT22;14031;50.158;8.626;2023-05-07T02:08:33;17.10;99.90
16174;DHT22;14031;50.158;8.626;2023-05-07T02:10:59;17.00;99.90
16174;DHT22;14031;50.158;8.626;2023-05-07T02:13:28;17.00;99.90
16174;DHT22;14031;50.158;8.626;2023-05-07T02:15:57;17.00;99.90
16174;DHT22;14031;50.158;8.626;2023-05-07T02:18:23;17.00;99.90
16174;DHT22;14031;50.158;8.626;2023-05-07T02:20:50;17.00;99.90
16174;DHT22;14031;50.158;8.626;2023-05-07T02:23:17;17.00;99.90
16174;DHT22;14031;50.158;8.626;2023-05-07T02:25:44;17.00;99.90
16174;DHT22;14031;50.158;8.626;2023-05-07T02:28:11;17.00;99.90
16174;DHT22;14031;50.158;8.626;2023-05-07T02:30:38;17.00;99.90
16174;DHT22;14031;50.158;8.626;2023-05-07T02:33:06;17.00;99.90
16174;DHT22;14031;50.158;8.626;2023-05-07T02:35:33;17.00;99.90
16174;DHT22;14031;50.158;8.626;2023-05-07T02:38:00;16.90;99.90
16174;DHT22;14031;50.158;8.626;2023-05-07T02:40:27;17.00;99.90
16174;DHT22;14031;50.158;8.626;2023-05-07T02:42:54;16.90;99.90
16174;DHT22;14031;50.158;8.626;2023-05-07T02:45:21;16.90;99.90
16174;DHT22;14031;50.158;8.626;2023-05-07T02:47:47;16.90;99.90
16174;DHT22;14031;50.158;8.626;2023-05-07T02:50:15;16.90;99.90
16174;DHT22;14031;50.158;8.626;2023-05-07T02:52:42;16.90;99.90
16174;DHT22;14031;50.158;8.626;2023-05-07T02:55:09;17.00;99.90
16174;DHT22;14031;50.158;8.626;2023-05-07T02:57:36;16.90;99.90
16174;DHT22;14031;50.158;8.626;2023-05-07T03:00:11;16.90;99.90
16174;DHT22;14031;50.158;8.626;2023-05-07T03:02:38;16.80;99.90
16174;DHT22;14031;50.158;8.626;2023-05-07T03:05:06;16.80;99.90
16174;DHT22;14031;50.158;8.626;2023-05-07T03:07:34;16.80;99.90
16174;DHT22;14031;50.158;8.626;2023-05-07T03:10:01;16.80;99.90
16174;DHT22;14031;50.158;8.626;2023-05-07T03:12:28;16.80;99.90
16174;DHT22;14031;50.158;8.626;2023-05-07T03:14:55;16.80;99.90
16174;DHT22;14031;50.158;8.626;2023-05-07T03:17:21;16.80;99.90
16174;DHT22;14031;50.158;8.626;2023-05-07T03:19:48;16.80;99.90
16174;DHT22;14031;50.158;8.626;2023-05-07T03:22:15;16.70;99.90
16174;DHT22;14031;50.158;8.626;2023-05-07T03:24:43;16.70;99.90
16174;DHT22;14031;50.158;8.626;2023-05-07T03:27:10;16.70;99.90
16174;DHT22;14031;50.158;8.626;2023-05-07T03:29:36;16.70;99.90
16174;DHT22;14031;50.158;8.626;2023-05-07T03:32:04;16.70;99.90
16174;DHT22;14031;50.158;8.626;2023-05-07T03:34:31;16.70;99.90
16174;DHT22;14031;50.158;8.626;2023-05-07T03:36:58;16.70;99.90
16174;DHT22;14031;50.158;8.626;2023-05-07T03:39:24;16.70;99.90
16174;DHT22;14031;50.158;8.626;2023-05-07T03:41:53;16.70;99.90
16174;DHT22;14031;50.158;8.626;2023-05-07T03:44:19;16.80;99.90
16174;DHT22;14031;50.158;8.626;2023-05-07T03:46:46;16.70;99.90
16174;DHT22;14031;50.158;8.626;2023-05-07T03:49:13;16.70;99.90
16174;DHT22;14031;50.158;8.626;2023-05-07T03:51:40;16.60;99.90
16174;DHT22;14031;50.158;8.626;2023-05-07T03:54:07;16.60;99.90
16174;DHT22;14031;50.158;8.626;2023-05-07T03:56:33;16.70;99.90
16174;DHT22;14031;50.158;8.626;2023-05-07T03:59:02;16.70;99.90
16174;DHT22;14031;50.158;8.626;2023-05-07T04:01:28;16.60;99.90
16174;DHT22;14031;50.158;8.626;2023-05-07T04:03:55;16.60;99.90
16174;DHT22;14031;50.158;8.626;2023-05-07T04:06:22;16.70;99.90
16174;DHT22;14031;50.158;8.626;2023-05-07T04:08:49;16.60;99.90
16174;DHT22;14031;50.158;8.626;2023-05-07T04:11:16;16.60;99.90
16174;DHT22;14031;50.158;8.626;2023-05-07T04:13:43;16.50;99.90
16174;DHT22;14031;50.158;8.626;2023-05-07T04:16:11;16.50;99.90
16174;DHT22;14031;50.158;8.626;2023-05-07T04:18:38;16.50;99.90
16174;DHT22;14031;50.158;8.626;2023-05-07T04:21:05;16.50;99.90
16174;DHT22;14031;50.158;8.626;2023-05-07T04:23:31;16.50;99.90
16174;DHT22;14031;50.158;8.626;2023-05-07T04:25:58;16.40;99.90
16174;DHT22;14031;50.158;8.626;2023-05-07T04:28:26;16.40;99.90
16174;DHT22;14031;50.158;8.626;2023-05-07T04:30:53;16.40;99.90
16174;DHT22;14031;50.158;8.626;2023-05-07T04:33:21;16.40;99.90
16174;DHT22;14031;50.158;8.626;2023-05-07T04:35:47;16.40;99.90
16174;DHT22;14031;50.158;8.626;2023-05-07T04:38:14;16.40;99.90
16174;DHT22;14031;50.158;8.626;2023-05-07T04:40:42;16.60;99.90
16174;DHT22;14031;50.158;8.626;2023-05-07T04:43:08;16.50;99.90
16174;DHT22;14031;50.158;8.626;2023-05-07T04:45:35;16.50;99.90
16174;DHT22;14031;50.158;8.626;2023-05-07T04:48:02;16.50;99.90
16174;DHT22;14031;50.158;8.626;2023-05-07T04:50:30;16.60;99.90
16174;DHT22;14031;50.158;8.626;2023-05-07T04:52:57;16.50;99.90
16174;DHT22;14031;50.158;8.626;2023-05-07T04:55:24;16.60;99.90
16174;DHT22;14031;50.158;8.626;2023-05-07T04:57:52;16.60;99.90
16174;DHT22;14031;50.158;8.626;2023-05-07T05:00:19;16.60;99.90
16174;DHT22;14031;50.158;8.626;2023-05-07T05:02:46;16.60;99.90
16174;DHT22;14031;50.158;8.626;2023-05-07T05:05:12;16.70;99.90
16174;DHT22;14031;50.158;8.626;2023-05-07T05:07:40;16.60;99.90
16174;DHT22;14031;50.158;8.626;2023-05-07T05:10:07;16.70;99.90
16174;DHT22;14031;50.158;8.626;2023-05-07T05:12:34;16.70;99.90
16174;DHT22;14031;50.158;8.626;2023-05-07T05:15:01;16.70;99.90
16174;DHT22;14031;50.158;8.626;2023-05-07T05:17:28;16.60;99.90
16174;DHT22;14031;50.158;8.626;2023-05-07T05:19:54;16.70;99.90
16174;DHT22;14031;50.158;8.626;2023-05-07T05:22:21;16.70;99.90
16174;DHT22;14031;50.158;8.626;2023-05-07T05:24:49;16.90;99.90
16174;DHT22;14031;50.158;8.626;2023-05-07T05:27:16;16.80;99.90
16174;DHT22;14031;50.158;8.626;2023-05-07T05:29:43;16.80;99.90
16174;DHT22;14031;50.158;8.626;2023-05-07T05:32:09;16.80;99.90
16174;DHT22;14031;50.158;8.626;2023-05-07T05:34:36;16.90;99.90
16174;DHT22;14031;50.158;8.626;2023-05-07T05:37:03;17.00;99.90
16174;DHT22;14031;50.158;8.626;2023-05-07T05:39:30;17.00;99.90
16174;DHT22;14031;50.158;8.626;2023-05-07T05:41:58;17.20;99.90
16174;DHT22;14031;50.158;8.626;2023-05-07T05:44:25;17.20;99.90
16174;DHT22;14031;50.158;8.626;2023-05-07T05:46:51;17.20;99.90
16174;DHT22;14031;50.158;8.626;2023-05-07T05:49:20;17.20;99.90
16174;DHT22;14031;50.158;8.626;2023-05-07T05:51:47;17.40;99.90
16174;DHT22;14031;50.158;8.626;2023-05-07T05:54:14;17.30;99.90
16174;DHT22;14031;50.158;8.626;2023-05-07T05:56:41;17.30;99.90
16174;DHT22;14031;50.158;8.626;2023-05-07T05:59:09;17.40;99.90
16174;DHT22;14031;50.158;8.626;2023-05-07T06:01:36;17.30;99.90
16174;DHT22;14031;50.158;8.626;2023-05-07T06:04:03;17.40;99.90
16174;DHT22;14031;50.158;8.626;2023-05-07T06:06:30;17.50;99.90
16174;DHT22;14031;50.158;8.626;2023-05-07T06:08:57;17.50;99.90
16174;DHT22;14031;50.158;8.626;2023-05-07T06:11:24;17.60;99.90
16174;DHT22;14031;50.158;8.626;2023-05-07T06:13:51;17.60;99.90
16174;DHT22;14031;50.158;8.626;2023-05-07T06:16:19;17.60;99.90
16174;DHT22;14031;50.158;8.626;2023-05-07T06:18:46;17.60;99.90
16174;DHT22;14031;50.158;8.626;2023-05-07T06:21:13;17.70;99.90
16174;DHT22;14031;50.158;8.626;2023-05-07T06:23:40;17.80;99.90
16174;DHT22;14031;50.158;8.626;2023-05-07T06:26:07;17.80;99.90
16174;DHT22;14031;50.158;8.626;2023-05-07T06:28:34;17.90;99.90
16174;DHT22;14031;50.158;8.626;2023-05-07T06:31:12;17.90;99.90
16174;DHT22;14031;50.158;8.626;2023-05-07T06:33:40;18.00;99.90
16174;DHT22;14031;50.158;8.626;2023-05-07T06:36:07;18.00;99.90
16174;DHT22;14031;50.158;8.626;2023-05-07T06:38:34;18.00;99.90
16174;DHT22;14031;50.158;8.626;2023-05-07T06:41:01;18.00;99.90
16174;DHT22;14031;50.158;8.626;2023-05-07T06:43:27;18.20;99.90
16174;DHT22;14031;50.158;8.626;2023-05-07T06:45:54;18.20;99.90
16174;DHT22;14031;50.158;8.626;2023-05-07T06:48:21;18.30;99.90
16174;DHT22;14031;50.158;8.626;2023-05-07T06:50:49;18.20;99.90
16174;DHT22;14031;50.158;8.626;2023-05-07T06:53:17;18.40;99.90
16174;DHT22;14031;50.158;8.626;2023-05-07T06:55:44;18.40;99.90
16174;DHT22;14031;50.158;8.626;2023-05-07T06:58:30;18.40;99.90
16174;DHT22;14031;50.158;8.626;2023-05-07T07:00:59;18.50;99.90
16174;DHT22;14031;50.158;8.626;2023-05-07T07:03:27;18.50;99.90
16174;DHT22;14031;50.158;8.626;2023-05-07T07:05:57;18.60;99.90
16174;DHT22;14031;50.158;8.626;2023-05-07T07:08:24;18.80;99.90
16174;DHT22;14031;50.158;8.626;2023-05-07T07:10:52;18.90;99.90
16174;DHT22;14031;50.158;8.626;2023-05-07T07:13:19;19.00;99.90
16174;DHT22;14031;50.158;8.626;2023-05-07T07:15:46;19.10;99.90
16174;DHT22;14031;50.158;8.626;2023-05-07T07:18:12;19.30;99.90
16174;DHT22;14031;50.158;8.626;2023-05-07T07:20:39;19.20;99.90
16174;DHT22;14031;50.158;8.626;2023-05-07T07:23:07;19.30;99.90
16174;DHT22;14031;50.158;8.626;2023-05-07T07:25:34;19.40;99.90
16174;DHT22;14031;50.158;8.626;2023-05-07T07:28:01;19.50;99.90
16174;DHT22;14031;50.158;8.626;2023-05-07T07:30:30;19.60;99.90
16174;DHT22;14031;50.158;8.626;2023-05-07T07:32:57;19.50;99.90
16174;DHT22;14031;50.158;8.626;2023-05-07T07:35:27;19.70;99.90
16174;DHT22;14031;50.158;8.626;2023-05-07T07:37:54;19.70;99.90
16174;DHT22;14031;50.158;8.626;2023-05-07T07:40:22;19.70;99.90
16174;DHT22;14031;50.158;8.626;2023-05-07T07:42:50;19.80;99.90
16174;DHT22;14031;50.158;8.626;2023-05-07T07:45:17;19.80;99.90
16174;DHT22;14031;50.158;8.626;2023-05-07T07:47:44;20.00;99.90
16174;DHT22;14031;50.158;8.626;2023-05-07T07:50:10;20.00;99.90
16174;DHT22;14031;50.158;8.626;2023-05-07T07:52:37;20.10;99.90
16174;DHT22;14031;50.158;8.626;2023-05-07T07:55:05;20.10;99.90
16174;DHT22;14031;50.158;8.626;2023-05-07T07:57:34;20.10;99.90
16174;DHT22;14031;50.158;8.626;2023-05-07T08:00:00;20.10;99.90
16174;DHT22;14031;50.158;8.626;2023-05-07T08:02:27;20.30;99.90
16174;DHT22;14031;50.158;8.626;2023-05-07T08:04:55;20.30;99.90
16174;DHT22;14031;50.158;8.626;2023-05-07T08:07:21;20.30;99.90
16174;DHT22;14031;50.158;8.626;2023-05-07T08:09:48;20.40;99.90
16174;DHT22;14031;50.158;8.626;2023-05-07T08:12:15;20.40;99.90
16174;DHT22;14031;50.158;8.626;2023-05-07T08:14:43;20.30;99.90
16174;DHT22;14031;50.158;8.626;2023-05-07T08:17:11;20.30;99.90
16174;DHT22;14031;50.158;8.626;2023-05-07T08:19:39;20.40;99.90
16174;DHT22;14031;50.158;8.626;2023-05-07T08:22:05;20.40;99.90
16174;DHT22;14031;50.158;8.626;2023-05-07T08:24:32;20.60;99.90
16174;DHT22;14031;50.158;8.626;2023-05-07T08:26:59;20.60;99.90
16174;DHT22;14031;50.158;8.626;2023-05-07T08:29:26;20.80;99.90
16174;DHT22;14031;50.158;8.626;2023-05-07T08:31:54;20.80;99.90
16174;DHT22;14031;50.158;8.626;2023-05-07T08:34:21;20.90;99.90
16174;DHT22;14031;50.158;8.626;2023-05-07T08:36:48;20.90;99.90
16174;DHT22;14031;50.158;8.626;2023-05-07T08:39:15;20.90;99.90
16174;DHT22;14031;50.158;8.626;2023-05-07T08:41:44;20.90;99.90
16174;DHT22;14031;50.158;8.626;2023-05-07T08:44:12;21.00;99.90
16174;DHT22;14031;50.158;8.626;2023-05-07T08:46:41;21.00;99.90
16174;DHT22;14031;50.158;8.626;2023-05-07T08:49:10;21.10;99.90
16174;DHT22;14031;50.158;8.626;2023-05-07T08:51:37;21.20;99.90
16174;DHT22;14031;50.158;8.626;2023-05-07T08:54:04;21.40;99.90
16174;DHT22;14031;50.158;8.626;2023-05-07T08:56:32;21.40;99.90
16174;DHT22;14031;50.158;8.626;2023-05-07T08:58:58;21.40;99.90
16174;DHT22;14031;50.158;8.626;2023-05-07T09:01:26;21.50;99.90
16174;DHT22;14031;50.158;8.626;2023-05-07T09:03:53;21.60;99.90
16174;DHT22;14031;50.158;8.626;2023-05-07T09:06:21;21.70;99.90
16174;DHT22;14031;50.158;8.626;2023-05-07T09:08:52;21.80;99.90
16174;DHT22;14031;50.158;8.626;2023-05-07T09:11:20;21.80;99.90
16174;DHT22;14031;50.158;8.626;2023-05-07T09:13:48;21.80;99.90
16174;DHT22;14031;50.158;8.626;2023-05-07T09:16:15;21.80;99.90
16174;DHT22;14031;50.158;8.626;2023-05-07T09:18:44;21.80;99.90
16174;DHT22;14031;50.158;8.626;2023-05-07T09:21:15;21.90;99.90
16174;DHT22;14031;50.158;8.626;2023-05-07T09:23:43;22.00;99.90
16174;DHT22;14031;50.158;8.626;2023-05-07T09:26:10;22.00;99.90
16174;DHT22;14031;50.158;8.626;2023-05-07T09:28:39;22.10;99.90
16174;DHT22;14031;50.158;8.626;2023-05-07T09:31:06;22.00;99.90
16174;DHT22;14031;50.158;8.626;2023-05-07T09:33:33;21.80;99.90
16174;DHT22;14031;50.158;8.626;2023-05-07T09:36:02;21.80;99.90
16174;DHT22;14031;50.158;8.626;2023-05-07T09:38:30;21.80;99.90
16174;DHT22;14031;50.158;8.626;2023-05-07T09:41:04;21.70;99.90
16174;DHT22;14031;50.158;8.626;2023-05-07T09:43:34;22.00;99.90
16174;DHT22;14031;50.158;8.626;2023-05-07T09:46:03;22.00;99.90
16174;DHT22;14031;50.158;8.626;2023-05-07T09:48:35;22.10;99.90
16174;DHT22;14031;50.158;8.626;2023-05-07T09:51:09;22.10;99.90
16174;DHT22;14031;50.158;8.626;2023-05-07T09:53:38;22.10;99.90
16174;DHT22;14031;50.158;8.626;2023-05-07T09:56:08;22.10;99.90
16174;DHT22;14031;50.158;8.626;2023-05-07T09:58:37;22.10;99.90
16174;DHT22;14031;50.158;8.626;2023-05-07T10:01:05;22.20;99.90
16174;DHT22;14031;50.158;8.626;2023-05-07T10:03:33;22.40;99.90
16174;DHT22;14031;50.158;8.626;2023-05-07T10:06:02;22.50;99.90
16174;DHT22;14031;50.158;8.626;2023-05-07T10:08:30;22.70;99.90
16174;DHT22;14031;50.158;8.626;2023-05-07T10:10:59;22.70;99.90
16174;DHT22;14031;50.158;8.626;2023-05-07T10:13:27;22.80;99.90
16174;DHT22;14031;50.158;8.626;2023-05-07T10:15:55;22.90;99.90
16174;DHT22;14031;50.158;8.626;2023-05-07T10:18:22;23.00;99.90
16174;DHT22;14031;50.158;8.626;2023-05-07T10:20:56;23.00;99.90
16174;DHT22;14031;50.158;8.626;2023-05-07T10:23:26;23.00;99.90
16174;DHT22;14031;50.158;8.626;2023-05-07T10:25:54;23.10;99.90
16174;DHT22;14031;50.158;8.626;2023-05-07T10:28:23;23.20;99.90
16174;DHT22;14031;50.158;8.626;2023-05-07T10:31:01;23.40;99.90
16174;DHT22;14031;50.158;8.626;2023-05-07T10:33:31;23.50;99.90
16174;DHT22;14031;50.158;8.626;2023-05-07T10:36:00;23.60;99.90
16174;DHT22;14031;50.158;8.626;2023-05-07T10:38:30;23.70;99.90
16174;DHT22;14031;50.158;8.626;2023-05-07T10:40:57;23.70;99.90
16174;DHT22;14031;50.158;8.626;2023-05-07T10:43:24;23.70;99.90
16174;DHT22;14031;50.158;8.626;2023-05-07T10:46:16;23.70;99.90
16174;DHT22;14031;50.158;8.626;2023-05-07T10:49:11;23.70;99.90
16174;DHT22;14031;50.158;8.626;2023-05-07T10:51:38;23.70;99.90
16174;DHT22;14031;50.158;8.626;2023-05-07T10:54:21;23.80;99.90
16174;DHT22;14031;50.158;8.626;2023-05-07T10:56:49;23.90;99.90
16174;DHT22;14031;50.158;8.626;2023-05-07T10:59:36;23.80;99.90
16174;DHT22;14031;50.158;8.626;2023-05-07T11:02:09;23.70;99.90
16174;DHT22;14031;50.158;8.626;2023-05-07T11:04:37;23.80;99.90
16174;DHT22;14031;50.158;8.626;2023-05-07T11:07:31;23.90;99.90
16174;DHT22;14031;50.158;8.626;2023-05-07T11:10:02;23.80;99.90
16174;DHT22;14031;50.158;8.626;2023-05-07T11:12:50;23.90;99.90
16174;DHT22;14031;50.158;8.626;2023-05-07T11:15:41;24.10;99.90
16174;DHT22;14031;50.158;8.626;2023-05-07T11:18:11;24.20;99.90
16174;DHT22;14031;50.158;8.626;2023-05-07T11:20:51;24.20;99.90
16174;DHT22;14031;50.158;8.626;2023-05-07T11:23:55;24.30;99.90
16174;DHT22;14031;50.158;8.626;2023-05-07T11:26:24;24.50;99.90
16174;DHT22;14031;50.158;8.626;2023-05-07T11:28:52;24.50;99.90
16174;DHT22;14031;50.158;8.626;2023-05-07T11:31:21;24.70;99.90
16174;DHT22;14031;50.158;8.626;2023-05-07T11:33:50;25.00;99.90
16174;DHT22;14031;50.158;8.626;2023-05-07T11:36:18;25.40;99.90
16174;DHT22;14031;50.158;8.626;2023-05-07T11:38:46;25.80;99.90
16174;DHT22;14031;50.158;8.626;2023-05-07T11:41:13;26.00;99.90
16174;DHT22;14031;50.158;8.626;2023-05-07T11:43:54;26.10;99.90
16174;DHT22;14031;50.158;8.626;2023-05-07T11:46:21;26.10;99.90
16174;DHT22;14031;50.158;8.626;2023-05-07T11:48:49;26.20;99.90
16174;DHT22;14031;50.158;8.626;2023-05-07T11:51:19;26.30;99.90
16174;DHT22;14031;50.158;8.626;2023-05-07T11:53:47;26.50;99.90
16174;DHT22;14031;50.158;8.626;2023-05-07T11:56:15;26.80;99.90
16174;DHT22;14031;50.158;8.626;2023-05-07T11:58:43;26.90;99.90
16174;DHT22;14031;50.158;8.626;2023-05-07T12:01:11;27.00;99.90
16174;DHT22;14031;50.158;8.626;2023-05-07T12:03:40;26.90;99.90
16174;DHT22;14031;50.158;8.626;2023-05-07T12:06:10;26.70;99.90
16174;DHT22;14031;50.158;8.626;2023-05-07T12:08:38;26.70;99.90
16174;DHT22;14031;50.158;8.626;2023-05-07T12:11:09;26.60;99.90
16174;DHT22;14031;50.158;8.626;2023-05-07T12:13:37;26.60;99.90
16174;DHT22;14031;50.158;8.626;2023-05-07T12:16:06;26.50;99.90
16174;DHT22;14031;50.158;8.626;2023-05-07T12:18:34;26.30;99.90
16174;DHT22;14031;50.158;8.626;2023-05-07T12:21:02;26.20;99.90
16174;DHT22;14031;50.158;8.626;2023-05-07T12:23:30;26.10;99.90
16174;DHT22;14031;50.158;8.626;2023-05-07T12:25:57;26.10;99.90
16174;DHT22;14031;50.158;8.626;2023-05-07T12:28:24;26.00;99.90
16174;DHT22;14031;50.158;8.626;2023-05-07T12:30:51;26.10;99.90
16174;DHT22;14031;50.158;8.626;2023-05-07T12:33:18;26.20;99.90
16174;DHT22;14031;50.158;8.626;2023-05-07T12:35:47;26.40;99.90
16174;DHT22;14031;50.158;8.626;2023-05-07T12:38:15;26.40;99.90
16174;DHT22;14031;50.158;8.626;2023-05-07T12:40:45;26.30;99.90
16174;DHT22;14031;50.158;8.626;2023-05-07T12:43:15;26.30;99.90
16174;DHT22;14031;50.158;8.626;2023-05-07T12:45:44;26.30;99.90
16174;DHT22;14031;50.158;8.626;2023-05-07T12:48:11;26.50;99.90
16174;DHT22;14031;50.158;8.626;2023-05-07T12:50:38;26.50;99.90
16174;DHT22;14031;50.158;8.626;2023-05-07T12:53:05;26.70;99.90
16174;DHT22;14031;50.158;8.626;2023-05-07T12:55:40;26.80;99.90
16174;DHT22;14031;50.158;8.626;2023-05-07T12:58:14;27.00;99.90
16174;DHT22;14031;50.158;8.626;2023-05-07T13:00:42;27.10;99.90
16174;DHT22;14031;50.158;8.626;2023-05-07T13:03:09;27.20;99.90
16174;DHT22;14031;50.158;8.626;2023-05-07T13:05:36;27.20;99.90
16174;DHT22;14031;50.158;8.626;2023-05-07T13:08:03;27.20;99.90
16174;DHT22;14031;50.158;8.626;2023-05-07T13:10:29;27.30;99.90
16174;DHT22;14031;50.158;8.626;2023-05-07T13:12:56;27.50;99.90
16174;DHT22;14031;50.158;8.626;2023-05-07T13:15:24;27.70;99.90
16174;DHT22;14031;50.158;8.626;2023-05-07T13:17:52;27.80;99.90
16174;DHT22;14031;50.158;8.626;2023-05-07T13:20:19;28.00;99.90
16174;DHT22;14031;50.158;8.626;2023-05-07T13:22:45;28.10;99.90
16174;DHT22;14031;50.158;8.626;2023-05-07T13:25:12;28.30;99.90
16174;DHT22;14031;50.158;8.626;2023-05-07T13:27:39;28.30;99.90
16174;DHT22;14031;50.158;8.626;2023-05-07T13:30:07;28.40;99.90
16174;DHT22;14031;50.158;8.626;2023-05-07T13:32:35;28.20;99.90
16174;DHT22;14031;50.158;8.626;2023-05-07T13:35:02;27.90;99.90
16174;DHT22;14031;50.158;8.626;2023-05-07T13:37:28;27.60;99.90
16174;DHT22;14031;50.158;8.626;2023-05-07T13:39:55;27.40;99.90
16174;DHT22;14031;50.158;8.626;2023-05-07T13:42:22;27.20;99.90
16174;DHT22;14031;50.158;8.626;2023-05-07T13:44:49;27.10;99.90
16174;DHT22;14031;50.158;8.626;2023-05-07T13:47:15;26.90;99.90
16174;DHT22;14031;50.158;8.626;2023-05-07T13:49:44;26.80;99.90
16174;DHT22;14031;50.158;8.626;2023-05-07T13:52:10;26.80;99.90
16174;DHT22;14031;50.158;8.626;2023-05-07T13:54:37;26.70;99.90
16174;DHT22;14031;50.158;8.626;2023-05-07T13:57:04;26.70;99.90
16174;DHT22;14031;50.158;8.626;2023-05-07T13:59:31;26.70;99.90
16174;DHT22;14031;50.158;8.626;2023-05-07T14:01:58;26.80;99.90
16174;DHT22;14031;50.158;8.626;2023-05-07T14:04:25;26.70;99.90
16174;DHT22;14031;50.158;8.626;2023-05-07T14:06:53;26.70;99.90
16174;DHT22;14031;50.158;8.626;2023-05-07T14:09:20;26.60;99.90
16174;DHT22;14031;50.158;8.626;2023-05-07T14:11:47;26.60;99.90
16174;DHT22;14031;50.158;8.626;2023-05-07T14:14:16;26.50;99.90
16174;DHT22;14031;50.158;8.626;2023-05-07T14:16:43;26.50;99.90
16174;DHT22;14031;50.158;8.626;2023-05-07T14:19:10;26.50;99.90
16174;DHT22;14031;50.158;8.626;2023-05-07T14:21:37;26.50;99.90
16174;DHT22;14031;50.158;8.626;2023-05-07T14:24:06;26.50;99.90
16174;DHT22;14031;50.158;8.626;2023-05-07T14:26:33;26.40;99.90
16174;DHT22;14031;50.158;8.626;2023-05-07T14:29:00;26.40;99.90
16174;DHT22;14031;50.158;8.626;2023-05-07T14:31:27;26.30;99.90
16174;DHT22;14031;50.158;8.626;2023-05-07T14:33:53;26.30;99.90
16174;DHT22;14031;50.158;8.626;2023-05-07T14:36:20;26.30;99.90
16174;DHT22;14031;50.158;8.626;2023-05-07T14:38:48;26.40;99.90
16174;DHT22;14031;50.158;8.626;2023-05-07T14:41:17;26.40;99.90
16174;DHT22;14031;50.158;8.626;2023-05-07T14:43:43;26.50;99.90
16174;DHT22;14031;50.158;8.626;2023-05-07T14:46:15;26.50;99.90
16174;DHT22;14031;50.158;8.626;2023-05-07T14:48:43;26.40;99.90
16174;DHT22;14031;50.158;8.626;2023-05-07T14:51:10;26.30;99.90
16174;DHT22;14031;50.158;8.626;2023-05-07T14:53:37;26.30;99.90
16174;DHT22;14031;50.158;8.626;2023-05-07T14:56:04;26.20;99.90
16174;DHT22;14031;50.158;8.626;2023-05-07T14:58:33;26.20;99.90
16174;DHT22;14031;50.158;8.626;2023-05-07T15:01:00;26.20;99.90
16174;DHT22;14031;50.158;8.626;2023-05-07T15:03:27;26.20;99.90
16174;DHT22;14031;50.158;8.626;2023-05-07T15:05:54;26.20;99.90
16174;DHT22;14031;50.158;8.626;2023-05-07T15:08:21;26.20;99.90
16174;DHT22;14031;50.158;8.626;2023-05-07T15:10:48;26.20;99.90
16174;DHT22;14031;50.158;8.626;2023-05-07T15:13:15;26.10;99.90
16174;DHT22;14031;50.158;8.626;2023-05-07T15:15:44;26.00;99.90
16174;DHT22;14031;50.158;8.626;2023-05-07T15:18:11;26.00;99.90
16174;DHT22;14031;50.158;8.626;2023-05-07T15:20:37;25.90;99.90
16174;DHT22;14031;50.158;8.626;2023-05-07T15:23:05;25.80;99.90
16174;DHT22;14031;50.158;8.626;2023-05-07T15:25:35;25.70;99.90
16174;DHT22;14031;50.158;8.626;2023-05-07T15:28:02;25.60;99.90
16174;DHT22;14031;50.158;8.626;2023-05-07T15:30:29;25.40;99.90
16174;DHT22;14031;50.158;8.626;2023-05-07T15:32:57;25.30;99.90
16174;DHT22;14031;50.158;8.626;2023-05-07T15:35:24;25.20;99.90